Mantador, North Dakota
Current Conditions -  °F | °C
As of 3:35 PM on Friday 28 Nov 2014 (Local Time) from KBWP Reporting Station
Broken Clouds Broken Clouds  
Wind Chill:   Ceiling: 9000
Heat Index: 19°   Visibility: 10mi
Dew Point: 12°   Wind: 9mph
Humidity: 74%   Direction: 120°ESE
Pressure: 29.78"   Gusts: NA
Location:  46.17°N, 96.98°W
Report Text: KBWP 282135Z AUTO 12008KT 10SM SCT012 BKN090 M07/M11 A2978 RMK AO1
Loading
Personal Weather Stations






























Interactive Weather Map New forecast layout! Learn more

10-Day Weather Forecast

Advertisements
Track Severe Weather on mobile